Time;durP1;ratioP1;P1;durP2;ratioP2;P2;SDS_P1;SDS_P2;PMS_P1;PMS_P2;Temp;Humidity;BMP_temperature;BMP_pressure;BME280_temperature;BME280_humidity;BME280_pressure;Samples;Min_cycle;Max_cycle;Signal;HPM_P1;HPM_P2
2021/09/16 00:01:28;;;;;;;2.13;2.03;;;18.70;99.90;;;;;;5050332;28;20407;-73
2021/09/16 00:03:55;;;;;;;2.45;2.25;;;18.70;99.90;;;;;;5048539;28;20622;-73
2021/09/16 00:06:23;;;;;;;2.30;2.20;;;18.70;99.90;;;;;;5048837;28;20672;-73
2021/09/16 00:08:50;;;;;;;2.53;2.42;;;18.70;99.90;;;;;;5048874;28;20267;-73
2021/09/16 00:11:17;;;;;;;2.38;2.28;;;18.70;99.90;;;;;;5046323;28;20228;-74
2021/09/16 00:13:45;;;;;;;2.50;2.30;;;18.70;99.90;;;;;;5043494;28;20222;-73
2021/09/16 00:16:12;;;;;;;2.35;2.22;;;18.70;99.90;;;;;;5045940;28;20275;-73
2021/09/16 00:18:38;;;;;;;2.30;2.20;;;18.70;99.90;;;;;;5049165;28;20235;-73
2021/09/16 00:21:05;;;;;;;2.17;2.07;;;18.70;99.90;;;;;;5050263;28;20202;-73
2021/09/16 00:23:34;;;;;;;2.60;2.40;;;18.70;99.90;;;;;;5047990;28;20229;-73
2021/09/16 00:26:01;;;;;;;2.40;2.30;;;18.70;99.90;;;;;;5046920;28;20310;-73
2021/09/16 00:28:28;;;;;;;2.72;2.10;;;18.70;99.90;;;;;;5048400;28;20554;-73
2021/09/16 00:30:55;;;;;;;2.00;1.90;;;18.70;99.90;;;;;;5049846;28;20206;-73
2021/09/16 00:33:21;;;;;;;2.10;2.00;;;18.70;99.90;;;;;;5048037;28;20201;-73
2021/09/16 00:35:49;;;;;;;2.03;1.92;;;18.70;99.90;;;;;;5048350;28;20471;-74
2021/09/16 00:38:15;;;;;;;2.42;2.22;;;18.70;99.90;;;;;;5048785;28;20665;-74
2021/09/16 00:40:44;;;;;;;2.83;2.63;;;18.70;99.90;;;;;;5047155;28;20205;-73
2021/09/16 00:43:11;;;;;;;2.40;2.30;;;18.70;99.90;;;;;;5046989;28;20198;-73
2021/09/16 00:45:38;;;;;;;2.85;2.30;;;18.70;99.90;;;;;;5049050;28;20198;-72
2021/09/16 00:48:05;;;;;;;2.30;2.20;;;18.70;99.90;;;;;;5045528;28;20219;-74
2021/09/16 00:50:35;;;;;;;2.60;2.35;;;18.70;99.90;;;;;;5041810;28;20194;-73
2021/09/16 00:53:02;;;;;;;2.75;2.55;;;18.70;99.90;;;;;;5048554;28;20209;-73
2021/09/16 00:55:29;;;;;;;2.92;2.72;;;18.70;99.90;;;;;;5048645;28;20186;-73
2021/09/16 00:58:02;;;;;;;2.97;2.78;;;18.60;99.90;;;;;;5045743;28;20230;-73
2021/09/16 01:00:29;;;;;;;2.20;2.10;;;18.50;99.90;;;;;;5049522;28;20717;-73
2021/09/16 01:02:56;;;;;;;2.60;2.45;;;18.50;99.90;;;;;;5048528;28;20204;-73
2021/09/16 01:05:23;;;;;;;2.80;2.60;;;18.50;99.90;;;;;;5049509;28;20202;-74
2021/09/16 01:07:50;;;;;;;2.60;2.50;;;18.50;99.90;;;;;;5049099;28;20204;-73
2021/09/16 01:10:19;;;;;;;2.38;2.28;;;18.50;99.90;;;;;;5048128;28;20285;-73
2021/09/16 01:12:46;;;;;;;2.42;2.33;;;18.40;99.90;;;;;;5045905;28;20997;-73
2021/09/16 01:15:15;;;;;;;2.75;2.55;;;18.40;99.90;;;;;;5049373;28;20357;-73
2021/09/16 01:17:42;;;;;;;2.25;2.15;;;18.40;99.90;;;;;;5047704;28;20230;-73
2021/09/16 01:20:11;;;;;;;2.00;1.90;;;18.40;99.90;;;;;;5047757;28;20215;-73
2021/09/16 01:22:39;;;;;;;1.85;1.80;;;18.40;99.90;;;;;;5048153;28;20324;-73
2021/09/16 01:25:07;;;;;;;2.35;2.25;;;18.40;99.90;;;;;;5046313;28;20201;-73
2021/09/16 01:27:34;;;;;;;2.35;2.25;;;18.40;99.90;;;;;;5046758;28;20209;-72
2021/09/16 01:30:03;;;;;;;2.63;2.40;;;18.40;99.90;;;;;;5048762;28;20221;-73
2021/09/16 01:32:30;;;;;;;2.08;1.98;;;18.30;99.90;;;;;;5048124;28;20664;-73
2021/09/16 01:34:57;;;;;;;2.10;2.00;;;18.40;99.90;;;;;;5049219;28;20193;-73
2021/09/16 01:37:24;;;;;;;2.20;2.08;;;18.40;99.90;;;;;;5046238;28;20233;-74
2021/09/16 01:39:52;;;;;;;2.30;2.20;;;18.40;99.90;;;;;;5047828;28;20652;-73
2021/09/16 01:42:19;;;;;;;2.30;2.20;;;18.40;99.90;;;;;;5047038;28;20202;-73
2021/09/16 01:44:47;;;;;;;1.90;1.80;;;18.40;99.90;;;;;;5049067;28;20205;-72
2021/09/16 01:47:14;;;;;;;1.80;1.70;;;18.40;99.90;;;;;;5047316;28;20191;-71
2021/09/16 01:49:41;;;;;;;2.00;1.90;;;18.40;99.90;;;;;;5047169;28;20321;-72
2021/09/16 01:52:08;;;;;;;2.83;2.63;;;18.30;99.90;;;;;;5046686;28;20299;-72
2021/09/16 01:54:35;;;;;;;2.60;2.40;;;18.30;99.90;;;;;;5046702;28;20202;-72
2021/09/16 01:57:04;;;;;;;2.50;2.40;;;18.40;99.90;;;;;;5044934;28;20578;-73
2021/09/16 01:59:31;;;;;;;2.55;2.45;;;18.40;99.90;;;;;;5047240;28;20196;-73
2021/09/16 02:01:58;;;;;;;2.50;2.40;;;18.40;99.90;;;;;;5048073;28;20212;-72
2021/09/16 02:04:25;;;;;;;2.80;2.60;;;18.40;99.90;;;;;;5046533;28;20209;-73
2021/09/16 02:06:52;;;;;;;3.10;2.78;;;18.30;99.90;;;;;;5046216;28;20208;-72
2021/09/16 02:09:19;;;;;;;2.65;2.45;;;18.30;99.90;;;;;;5046079;28;20200;-72
2021/09/16 02:11:46;;;;;;;2.40;2.30;;;18.30;99.90;;;;;;5046585;28;20204;-72
2021/09/16 02:14:14;;;;;;;2.78;2.58;;;18.30;99.90;;;;;;5044597;28;20246;-72
2021/09/16 02:16:41;;;;;;;2.40;2.30;;;18.30;99.90;;;;;;5036537;28;20540;-72
2021/09/16 02:19:08;;;;;;;2.53;2.42;;;18.30;99.90;;;;;;5045507;28;20283;-72
2021/09/16 02:21:35;;;;;;;2.75;2.60;;;18.30;99.90;;;;;;5048002;28;20212;-72
2021/09/16 02:24:02;;;;;;;2.85;2.67;;;18.20;99.90;;;;;;5046268;28;20209;-72
2021/09/16 02:26:29;;;;;;;2.50;2.40;;;18.20;99.90;;;;;;5046263;28;20258;-73
2021/09/16 02:28:56;;;;;;;2.97;2.78;;;18.20;99.90;;;;;;5047476;28;20194;-73
2021/09/16 02:31:24;;;;;;;3.10;2.90;;;18.20;99.90;;;;;;5047724;28;20569;-73
2021/09/16 02:33:51;;;;;;;3.88;3.58;;;18.20;99.90;;;;;;5049942;28;20340;-73
2021/09/16 02:36:18;;;;;;;4.05;3.75;;;18.10;99.90;;;;;;5050708;28;20205;-73
2021/09/16 02:38:45;;;;;;;3.35;3.15;;;18.10;99.90;;;;;;5051561;28;20228;-74
2021/09/16 02:41:12;;;;;;;3.22;3.03;;;18.10;99.90;;;;;;5048668;28;20209;-73
2021/09/16 02:43:39;;;;;;;2.83;2.63;;;18.00;99.90;;;;;;5050046;28;20217;-73
2021/09/16 02:46:06;;;;;;;3.70;3.45;;;18.00;99.90;;;;;;5047461;28;20293;-73
2021/09/16 02:48:34;;;;;;;4.00;3.67;;;18.00;99.90;;;;;;5048046;28;20223;-74
2021/09/16 02:51:01;;;;;;;3.70;3.42;;;18.00;99.90;;;;;;5049653;28;20280;-73
2021/09/16 02:53:28;;;;;;;2.88;2.72;;;18.00;99.90;;;;;;5050190;28;20686;-73
2021/09/16 02:55:54;;;;;;;3.15;2.95;;;18.00;99.90;;;;;;5049242;28;20208;-73
2021/09/16 02:58:21;;;;;;;2.77;2.57;;;18.00;99.90;;;;;;5048757;28;20220;-72
2021/09/16 03:00:48;;;;;;;3.50;3.20;;;18.00;99.90;;;;;;5050130;28;20262;-72
2021/09/16 03:03:15;;;;;;;3.47;3.27;;;18.00;99.90;;;;;;5049003;28;20209;-73
2021/09/16 03:05:45;;;;;;;3.27;3.07;;;18.00;99.90;;;;;;5050615;28;20224;-72
2021/09/16 03:08:12;;;;;;;2.83;2.63;;;18.00;99.90;;;;;;5050774;28;20197;-73
2021/09/16 03:10:39;;;;;;;3.60;3.30;;;18.00;99.90;;;;;;5050367;28;20203;-73
2021/09/16 03:13:06;;;;;;;3.15;2.95;;;18.00;99.90;;;;;;5050496;28;20237;-72
2021/09/16 03:15:34;;;;;;;3.17;2.97;;;18.00;99.90;;;;;;5051132;28;20543;-73
2021/09/16 03:18:00;;;;;;;3.35;3.15;;;17.90;99.90;;;;;;5051055;28;20660;-73
2021/09/16 03:20:27;;;;;;;2.88;2.70;;;18.00;99.90;;;;;;5051906;28;20243;-73
2021/09/16 03:22:56;;;;;;;3.13;2.92;;;18.00;99.90;;;;;;5051277;28;20608;-74
2021/09/16 03:25:22;;;;;;;3.85;3.55;;;18.00;99.90;;;;;;5049312;28;20233;-73
2021/09/16 03:27:49;;;;;;;3.33;3.10;;;18.00;99.90;;;;;;5050122;28;20204;-73
2021/09/16 03:30:16;;;;;;;3.45;3.15;;;18.00;99.90;;;;;;5053574;28;20699;-73
2021/09/16 03:32:44;;;;;;;3.20;3.00;;;18.00;99.90;;;;;;5049343;28;20738;-73
2021/09/16 03:35:11;;;;;;;3.03;2.87;;;18.00;99.90;;;;;;5046393;28;20205;-73
2021/09/16 03:37:38;;;;;;;2.75;2.55;;;18.00;99.90;;;;;;5050343;28;20203;-73
2021/09/16 03:40:08;;;;;;;2.50;2.40;;;18.00;99.90;;;;;;5049858;28;20665;-73
2021/09/16 03:42:35;;;;;;;2.38;2.28;;;18.00;99.90;;;;;;5049046;28;20212;-75
2021/09/16 03:45:02;;;;;;;2.90;2.70;;;18.00;99.90;;;;;;5048593;28;20230;-73
2021/09/16 03:47:29;;;;;;;3.72;3.42;;;18.00;99.90;;;;;;5049892;28;20315;-72
2021/09/16 03:49:56;;;;;;;3.20;3.00;;;18.00;99.90;;;;;;5050628;28;20199;-74
2021/09/16 03:52:23;;;;;;;3.15;2.95;;;18.00;99.90;;;;;;5050542;28;20672;-73
2021/09/16 03:54:50;;;;;;;3.00;2.80;;;18.00;99.90;;;;;;5050145;28;20196;-72
2021/09/16 03:57:18;;;;;;;3.03;2.80;;;18.00;99.90;;;;;;5048599;28;20393;-73
2021/09/16 03:59:45;;;;;;;2.78;2.58;;;18.00;99.90;;;;;;5048538;28;20279;-73
2021/09/16 04:02:12;;;;;;;3.45;3.17;;;18.00;99.90;;;;;;5049342;28;20197;-73
2021/09/16 04:04:39;;;;;;;2.50;2.40;;;18.00;99.90;;;;;;5049113;28;20218;-73
2021/09/16 04:07:06;;;;;;;3.07;2.87;;;18.10;99.90;;;;;;5048853;28;20201;-73
2021/09/16 04:09:33;;;;;;;4.22;2.50;;;18.00;99.90;;;;;;5049013;28;20554;-73
2021/09/16 04:12:00;;;;;;;3.30;3.10;;;18.00;99.90;;;;;;5048144;28;20744;-73
2021/09/16 04:14:28;;;;;;;3.30;3.10;;;18.00;99.90;;;;;;5046272;28;20209;-73
2021/09/16 04:16:55;;;;;;;4.13;3.22;;;18.00;99.90;;;;;;5040135;28;20200;-72
2021/09/16 04:19:22;;;;;;;3.28;3.08;;;18.00;99.90;;;;;;5049940;28;20326;-74
2021/09/16 04:21:49;;;;;;;4.85;3.15;;;17.90;99.90;;;;;;5049007;28;20600;-72
2021/09/16 04:24:16;;;;;;;3.90;3.60;;;17.90;99.90;;;;;;5049155;28;20246;-71
2021/09/16 04:26:44;;;;;;;3.85;3.55;;;17.90;99.90;;;;;;5048772;28;20607;-73
2021/09/16 04:29:12;;;;;;;3.30;3.03;;;17.90;99.90;;;;;;5049273;28;20200;-72
2021/09/16 04:31:40;;;;;;;5.35;4.88;;;17.90;99.90;;;;;;5081366;28;20855;-72
2021/09/16 04:34:07;;;;;;;6.25;5.20;;;17.90;99.90;;;;;;5049639;28;20209;-73
2021/09/16 04:36:34;;;;;;;29.73;7.23;;;17.80;99.90;;;;;;5048549;28;20205;-72
2021/09/16 04:39:01;;;;;;;6.95;6.35;;;17.80;99.90;;;;;;5049020;28;20217;-73
2021/09/16 04:41:28;;;;;;;6.63;6.03;;;17.80;99.90;;;;;;5047383;28;20212;-73
2021/09/16 04:43:55;;;;;;;5.63;5.13;;;17.80;99.90;;;;;;5048293;28;20208;-73
2021/09/16 04:46:22;;;;;;;4.47;4.10;;;17.80;99.90;;;;;;5048954;28;20203;-72
2021/09/16 04:48:51;;;;;;;3.85;3.55;;;17.80;99.90;;;;;;5046628;28;20198;-73
2021/09/16 04:51:18;;;;;;;3.72;3.42;;;17.80;99.90;;;;;;5041531;28;20591;-74
2021/09/16 04:53:45;;;;;;;3.72;3.42;;;17.80;99.90;;;;;;5049241;28;20197;-73
2021/09/16 04:56:12;;;;;;;3.33;3.13;;;17.90;99.90;;;;;;5039962;28;20201;-73
2021/09/16 04:58:38;;;;;;;3.70;3.40;;;17.90;99.90;;;;;;5048683;28;20284;-72
2021/09/16 05:01:05;;;;;;;3.90;3.60;;;17.90;99.90;;;;;;5048430;28;20229;-72
2021/09/16 05:03:32;;;;;;;3.33;3.03;;;17.90;99.90;;;;;;5048427;28;20708;-72
2021/09/16 05:06:01;;;;;;;3.17;2.97;;;17.90;99.90;;;;;;5049153;28;20201;-72
2021/09/16 05:08:28;;;;;;;3.15;2.92;;;17.90;99.90;;;;;;5048738;28;20205;-72
2021/09/16 05:10:54;;;;;;;3.25;3.05;;;17.90;99.90;;;;;;5045957;28;20219;-72
2021/09/16 05:13:21;;;;;;;2.83;2.63;;;17.80;99.90;;;;;;5046882;28;20237;-72
2021/09/16 05:15:49;;;;;;;2.83;2.70;;;17.80;99.90;;;;;;5048119;28;20356;-73
2021/09/16 05:18:16;;;;;;;3.33;3.13;;;17.80;99.90;;;;;;5048262;28;20457;-72
2021/09/16 05:20:43;;;;;;;2.97;2.78;;;17.80;99.90;;;;;;5048565;28;20208;-73
2021/09/16 05:23:12;;;;;;;2.65;2.50;;;17.80;99.90;;;;;;5048544;28;20539;-73
2021/09/16 05:25:38;;;;;;;3.35;3.15;;;17.80;99.90;;;;;;5046879;28;20203;-73
2021/09/16 05:28:05;;;;;;;3.60;3.30;;;17.80;99.90;;;;;;5034864;28;20205;-73
2021/09/16 05:30:32;;;;;;;3.90;3.60;;;17.90;99.90;;;;;;5048785;28;20204;-73
2021/09/16 05:32:59;;;;;;;3.00;2.80;;;17.90;99.90;;;;;;5047478;28;20196;-73
2021/09/16 05:35:26;;;;;;;4.53;3.10;;;17.90;99.90;;;;;;5048950;28;20239;-73
2021/09/16 05:37:58;;;;;;;3.38;3.08;;;17.90;99.90;;;;;;5049179;28;20223;-73
2021/09/16 05:40:26;;;;;;;3.20;3.00;;;17.90;99.90;;;;;;5046051;28;20229;-73
2021/09/16 05:42:53;;;;;;;3.45;3.25;;;17.90;99.90;;;;;;5047681;28;20679;-72
2021/09/16 05:45:20;;;;;;;4.15;3.53;;;17.90;99.90;;;;;;5047747;28;20217;-74
2021/09/16 05:47:47;;;;;;;3.83;3.53;;;17.90;99.90;;;;;;5046396;28;20262;-73
2021/09/16 05:50:14;;;;;;;4.30;4.00;;;17.90;99.90;;;;;;5047913;28;20215;-72
2021/09/16 05:52:41;;;;;;;4.10;3.70;;;17.90;99.90;;;;;;5048129;28;20562;-72
2021/09/16 05:55:09;;;;;;;6.20;5.30;;;17.90;99.90;;;;;;5047844;28;20288;-72
2021/09/16 05:57:38;;;;;;;5.57;5.00;;;17.80;99.90;;;;;;5046873;28;20197;-73
2021/09/16 06:00:06;;;;;;;4.22;3.92;;;17.80;99.90;;;;;;5048172;28;20312;-72
2021/09/16 06:02:33;;;;;;;3.63;3.33;;;17.80;99.90;;;;;;5045075;28;20205;-73
2021/09/16 06:05:00;;;;;;;3.10;2.90;;;17.80;99.90;;;;;;5047141;28;20302;-73
2021/09/16 06:07:27;;;;;;;2.87;2.73;;;17.70;99.90;;;;;;5048296;28;20207;-73
2021/09/16 06:09:54;;;;;;;6.95;5.05;;;17.70;99.90;;;;;;5044387;28;20193;-73
2021/09/16 06:12:21;;;;;;;4.38;4.03;;;17.70;99.90;;;;;;5046333;28;21183;-71
2021/09/16 06:14:52;;;;;;;4.07;3.78;;;17.70;99.90;;;;;;5048981;28;20208;-73
2021/09/16 06:17:21;;;;;;;7.00;3.93;;;17.70;99.90;;;;;;5051439;28;20223;-73
2021/09/16 06:19:48;;;;;;;5.22;4.75;;;17.70;99.90;;;;;;5049885;28;20209;-71
2021/09/16 06:22:15;;;;;;;5.43;4.93;;;17.70;99.90;;;;;;5049393;28;20665;-73
2021/09/16 06:24:42;;;;;;;6.30;5.60;;;17.70;99.90;;;;;;5049897;28;20202;-73
2021/09/16 06:27:09;;;;;;;6.03;5.43;;;17.70;99.90;;;;;;5049276;28;20205;-73
2021/09/16 06:29:36;;;;;;;6.45;5.47;;;17.60;99.90;;;;;;5050064;28;20207;-72
2021/09/16 06:32:05;;;;;;;5.32;4.85;;;17.60;99.90;;;;;;5047799;28;20203;-73
2021/09/16 06:34:32;;;;;;;5.27;4.87;;;17.60;99.90;;;;;;5050875;28;20196;-73
2021/09/16 06:37:00;;;;;;;4.93;4.50;;;17.60;99.90;;;;;;5051444;28;20204;-73
2021/09/16 06:39:27;;;;;;;6.63;5.77;;;17.60;99.90;;;;;;5043541;28;20236;-73
2021/09/16 06:41:54;;;;;;;4.63;4.33;;;17.50;99.90;;;;;;5048826;28;20668;-74
2021/09/16 06:44:21;;;;;;;4.95;4.55;;;17.60;99.90;;;;;;5050735;28;20211;-73
2021/09/16 06:46:47;;;;;;;5.72;4.88;;;17.50;99.90;;;;;;5048466;28;20226;-72
2021/09/16 06:49:16;;;;;;;5.00;4.60;;;17.50;99.90;;;;;;5049751;28;20242;-71
2021/09/16 06:51:43;;;;;;;5.87;5.27;;;17.50;99.90;;;;;;5049486;28;20197;-72
2021/09/16 06:54:10;;;;;;;5.80;5.30;;;17.50;99.90;;;;;;5049913;28;20213;-73
2021/09/16 06:56:37;;;;;;;5.57;5.07;;;17.50;99.90;;;;;;5045768;28;20205;-72
2021/09/16 06:59:04;;;;;;;6.00;5.47;;;17.40;99.90;;;;;;5049967;28;20219;-73
2021/09/16 07:01:32;;;;;;;5.88;5.38;;;17.40;99.90;;;;;;5048086;28;20203;-73
2021/09/16 07:03:59;;;;;;;7.25;5.40;;;17.40;99.90;;;;;;5049327;28;20199;-74
2021/09/16 07:06:27;;;;;;;5.03;4.63;;;17.40;99.90;;;;;;5050481;28;20206;-73
2021/09/16 07:08:54;;;;;;;4.32;3.92;;;17.40;99.90;;;;;;5081662;28;20318;-72
2021/09/16 07:11:21;;;;;;;4.10;3.80;;;17.40;99.90;;;;;;5045489;28;20207;-72
2021/09/16 07:13:48;;;;;;;4.60;4.20;;;17.40;99.90;;;;;;5047546;28;20257;-73
2021/09/16 07:16:15;;;;;;;4.50;4.10;;;17.40;99.90;;;;;;5047481;28;20207;-72
2021/09/16 07:18:42;;;;;;;4.15;3.75;;;17.40;99.90;;;;;;5048747;28;20209;-71
2021/09/16 07:21:09;;;;;;;4.13;3.83;;;17.50;99.90;;;;;;5046587;28;20205;-73
2021/09/16 07:23:37;;;;;;;4.20;3.90;;;17.50;99.90;;;;;;5050753;28;20203;-73
2021/09/16 07:26:04;;;;;;;4.20;3.90;;;17.50;99.90;;;;;;5052560;28;20655;-73
2021/09/16 07:28:35;;;;;;;4.50;4.10;;;17.60;99.90;;;;;;5048331;28;20720;-73
2021/09/16 07:31:02;;;;;;;4.13;3.77;;;17.50;99.90;;;;;;5049940;28;20704;-72
2021/09/16 07:33:29;;;;;;;4.10;3.80;;;17.60;99.90;;;;;;5046466;28;20201;-75
2021/09/16 07:35:57;;;;;;;4.60;4.20;;;17.70;99.90;;;;;;5045422;28;20196;-73
2021/09/16 07:38:24;;;;;;;4.20;3.80;;;17.70;99.90;;;;;;5048324;28;20238;-73
2021/09/16 07:40:52;;;;;;;4.75;4.25;;;17.70;99.90;;;;;;5046787;28;20297;-72
2021/09/16 07:43:19;;;;;;;5.90;5.40;;;17.80;99.90;;;;;;5045610;28;20442;-73
2021/09/16 07:45:46;;;;;;;6.75;6.15;;;17.80;99.90;;;;;;5048030;28;20201;-73
2021/09/16 07:48:13;;;;;;;5.93;5.32;;;17.80;99.90;;;;;;5047442;28;21371;-73
2021/09/16 07:50:40;;;;;;;6.18;5.20;;;17.80;99.90;;;;;;5047695;28;20193;-72
2021/09/16 07:53:10;;;;;;;5.13;4.70;;;17.90;99.90;;;;;;5048157;28;20205;-72
2021/09/16 07:55:37;;;;;;;4.00;3.70;;;17.90;99.90;;;;;;5049194;28;20209;-73
2021/09/16 07:58:06;;;;;;;5.03;4.53;;;17.90;99.90;;;;;;5047956;28;20215;-73
2021/09/16 08:00:33;;;;;;;6.10;5.50;;;18.00;99.90;;;;;;5047088;28;20774;-74
2021/09/16 08:03:00;;;;;;;7.50;6.35;;;17.90;99.90;;;;;;5047768;28;20661;-74
2021/09/16 08:05:27;;;;;;;5.75;5.25;;;17.90;99.90;;;;;;5048562;28;20240;-74
2021/09/16 08:07:54;;;;;;;5.85;5.25;;;17.90;99.90;;;;;;5049430;28;20516;-73
2021/09/16 08:10:21;;;;;;;5.70;5.20;;;17.90;99.90;;;;;;5045617;28;20444;-73
2021/09/16 08:12:49;;;;;;;5.90;5.30;;;17.90;99.90;;;;;;5044384;28;20312;-73
2021/09/16 08:15:18;;;;;;;6.45;5.68;;;17.90;99.90;;;;;;5049360;28;20193;-73
2021/09/16 08:17:45;;;;;;;5.77;5.23;;;17.90;99.90;;;;;;5045301;28;20192;-73
2021/09/16 08:20:13;;;;;;;7.97;5.73;;;17.90;99.90;;;;;;5047392;28;20228;-73
2021/09/16 08:22:41;;;;;;;5.63;5.13;;;17.90;99.90;;;;;;5045816;28;20620;-72
2021/09/16 08:25:10;;;;;;;6.93;5.60;;;17.90;99.90;;;;;;5043448;28;20207;-73
2021/09/16 08:27:37;;;;;;;5.90;5.40;;;17.90;99.90;;;;;;5047454;28;20205;-72
2021/09/16 08:30:05;;;;;;;5.20;4.72;;;17.90;99.90;;;;;;5046475;28;20200;-73
2021/09/16 08:32:34;;;;;;;6.35;5.68;;;17.90;99.90;;;;;;5044812;28;20710;-74
2021/09/16 08:35:01;;;;;;;5.75;5.18;;;17.90;99.90;;;;;;5046167;28;20288;-74
2021/09/16 08:37:28;;;;;;;4.80;4.40;;;17.90;99.90;;;;;;5048002;28;20204;-74
2021/09/16 08:39:55;;;;;;;5.22;4.78;;;17.90;99.90;;;;;;5047984;28;20547;-72
2021/09/16 08:42:25;;;;;;;4.72;4.32;;;17.90;99.90;;;;;;5042775;28;20208;-72
2021/09/16 08:44:53;;;;;;;5.07;4.57;;;17.90;99.90;;;;;;5048835;28;20234;-73
2021/09/16 08:47:24;;;;;;;4.45;4.03;;;18.00;99.90;;;;;;5042724;28;20195;-72
2021/09/16 08:49:52;;;;;;;6.13;5.53;;;18.10;99.90;;;;;;5048296;28;20200;-73
2021/09/16 08:52:20;;;;;;;5.65;4.97;;;18.10;99.90;;;;;;5046411;28;20204;-72
2021/09/16 08:54:50;;;;;;;6.33;5.30;;;18.10;99.90;;;;;;5041312;28;20207;-72
2021/09/16 08:57:17;;;;;;;5.95;5.03;;;18.20;99.90;;;;;;5045922;28;20217;-73
2021/09/16 08:59:46;;;;;;;4.90;4.50;;;18.20;99.90;;;;;;5046372;28;20691;-72
2021/09/16 09:02:13;;;;;;;5.32;4.57;;;18.20;99.90;;;;;;5043635;28;20349;-72
2021/09/16 09:04:40;;;;;;;5.22;4.70;;;18.30;99.90;;;;;;5046338;28;20208;-73
2021/09/16 09:07:09;;;;;;;5.20;4.70;;;18.40;99.90;;;;;;5045683;28;20946;-73
2021/09/16 09:09:36;;;;;;;5.00;4.50;;;18.40;99.90;;;;;;5047481;28;20207;-73
2021/09/16 09:12:09;;;;;;;5.28;4.78;;;18.40;99.90;;;;;;5044706;28;20591;-72
2021/09/16 09:14:39;;;;;;;5.95;4.78;;;18.50;99.90;;;;;;5046285;28;20617;-73
2021/09/16 09:17:17;;;;;;;6.30;5.70;;;18.50;99.90;;;;;;5047868;28;20566;-73
2021/09/16 09:19:44;;;;;;;5.10;4.65;;;18.60;99.90;;;;;;5045316;28;20694;-73
2021/09/16 09:22:13;;;;;;;5.35;4.85;;;18.60;99.90;;;;;;5046778;28;20538;-74
2021/09/16 09:24:42;;;;;;;6.75;4.97;;;18.70;99.90;;;;;;5043804;28;20209;-72
2021/09/16 09:27:24;;;;;;;5.35;4.85;;;18.70;99.90;;;;;;5044436;28;20321;-74
2021/09/16 09:30:13;;;;;;;5.00;4.60;;;18.60;99.90;;;;;;5048284;28;20665;-72
2021/09/16 09:32:52;;;;;;;5.20;4.70;;;18.60;99.90;;;;;;5045322;28;20198;-71
2021/09/16 09:35:31;;;;;;;4.40;4.10;;;18.70;99.90;;;;;;5044941;28;20241;-71
2021/09/16 09:38:01;;;;;;;4.28;3.97;;;18.70;99.90;;;;;;5046441;28;20255;-72
2021/09/16 09:40:32;;;;;;;5.15;4.75;;;18.70;99.90;;;;;;5046448;28;20317;-72
2021/09/16 09:43:19;;;;;;;6.30;5.70;;;18.70;99.90;;;;;;5045349;28;20703;-71
2021/09/16 09:46:02;;;;;;;5.50;5.00;;;18.70;99.90;;;;;;5041121;28;20259;-73
2021/09/16 09:48:29;;;;;;;6.03;5.07;;;18.60;99.90;;;;;;5046485;28;20697;-74
2021/09/16 09:50:57;;;;;;;4.28;3.88;;;18.60;99.90;;;;;;5047793;28;20198;-74
2021/09/16 09:53:26;;;;;;;4.63;4.22;;;18.60;99.90;;;;;;5044550;28;20206;-73
2021/09/16 09:55:53;;;;;;;6.15;5.55;;;18.70;99.90;;;;;;5045095;28;20758;-73
2021/09/16 09:58:35;;;;;;;5.07;4.68;;;18.70;99.90;;;;;;5046979;28;20190;-72
2021/09/16 10:01:30;;;;;;;4.72;4.43;;;18.70;99.90;;;;;;5045279;28;20267;-73
2021/09/16 10:03:58;;;;;;;4.88;4.45;;;18.70;99.90;;;;;;5040920;28;20221;-74
2021/09/16 10:06:34;;;;;;;6.32;5.72;;;18.70;99.90;;;;;;5045252;28;20198;-72
2021/09/16 10:09:10;;;;;;;6.25;5.72;;;18.70;99.90;;;;;;5044991;28;20452;-72
2021/09/16 10:11:42;;;;;;;6.00;5.50;;;18.80;99.90;;;;;;5040787;28;20198;-72
2021/09/16 10:14:09;;;;;;;5.50;5.00;;;18.80;99.90;;;;;;5043055;28;20654;-72
2021/09/16 10:16:36;;;;;;;5.57;5.07;;;18.90;99.90;;;;;;5045514;28;20201;-73
2021/09/16 10:19:04;;;;;;;5.70;5.20;;;18.90;99.90;;;;;;5047809;28;20194;-74
2021/09/16 10:21:30;;;;;;;4.72;4.32;;;19.00;99.90;;;;;;5045996;28;20320;-73
2021/09/16 10:23:59;;;;;;;4.70;4.30;;;19.00;99.90;;;;;;5045304;28;20566;-73
2021/09/16 10:26:36;;;;;;;4.10;3.78;;;19.10;99.90;;;;;;5042755;28;20204;-73
2021/09/16 10:29:04;;;;;;;3.90;3.60;;;19.10;99.90;;;;;;5046620;28;20193;-72
2021/09/16 10:31:31;;;;;;;3.92;3.63;;;19.10;99.90;;;;;;5044865;28;20205;-73
2021/09/16 10:33:58;;;;;;;4.25;3.90;;;19.20;99.90;;;;;;5044541;28;20194;-73
2021/09/16 10:36:25;;;;;;;4.53;4.13;;;19.20;99.90;;;;;;5044852;28;20206;-73
2021/09/16 10:38:55;;;;;;;6.30;4.63;;;19.30;99.90;;;;;;5046973;28;20503;-72
2021/09/16 10:41:25;;;;;;;7.75;6.70;;;19.30;99.90;;;;;;5043838;28;20728;-73
2021/09/16 10:44:18;;;;;;;8.98;6.80;;;19.40;99.90;;;;;;5045994;28;20295;-73
2021/09/16 10:46:46;;;;;;;6.10;5.40;;;19.50;99.90;;;;;;5045363;28;20190;-74
2021/09/16 10:49:32;;;;;;;5.85;5.30;;;19.60;99.90;;;;;;5044499;28;20190;-71
2021/09/16 10:52:01;;;;;;;5.53;5.03;;;19.70;99.90;;;;;;5045894;28;20740;-72
2021/09/16 10:54:37;;;;;;;6.95;5.63;;;19.80;99.90;;;;;;5044463;28;20217;-75
2021/09/16 10:57:06;;;;;;;5.30;4.80;;;19.90;99.90;;;;;;5045726;28;20197;-73
2021/09/16 11:00:10;;;;;;;5.28;4.78;;;20.00;99.90;;;;;;5047642;28;20202;-73
2021/09/16 11:03:17;;;;;;;5.82;5.03;;;20.20;99.90;;;;;;5045405;28;20212;-73
2021/09/16 11:05:51;;;;;;;5.00;4.50;;;20.30;99.90;;;;;;5045553;28;20740;-73
2021/09/16 11:08:19;;;;;;;5.80;5.30;;;20.40;99.90;;;;;;5048679;28;20205;-73
2021/09/16 11:10:57;;;;;;;6.20;5.43;;;20.40;99.90;;;;;;5048027;28;20182;-74
2021/09/16 11:13:37;;;;;;;7.28;5.82;;;20.40;99.90;;;;;;5044156;28;20289;-73
2021/09/16 11:16:07;;;;;;;5.05;4.65;;;20.50;99.90;;;;;;5048997;28;20210;-71
2021/09/16 11:18:34;;;;;;;6.90;5.20;;;20.50;99.90;;;;;;5049640;28;20585;-74
2021/09/16 11:21:03;;;;;;;6.00;5.32;;;20.50;99.90;;;;;;5048739;28;20213;-73
2021/09/16 11:23:37;;;;;;;5.38;4.88;;;20.50;99.90;;;;;;5048617;28;20206;-73
2021/09/16 11:26:05;;;;;;;4.68;4.28;;;20.60;99.90;;;;;;5048350;28;20202;-72
2021/09/16 11:28:32;;;;;;;4.68;4.22;;;20.70;99.90;;;;;;5048996;28;20197;-72
2021/09/16 11:30:59;;;;;;;5.32;4.85;;;20.70;99.90;;;;;;5047364;28;20459;-73
2021/09/16 11:33:27;;;;;;;5.60;5.05;;;20.70;99.90;;;;;;5049813;28;20201;-73
2021/09/16 11:36:04;;;;;;;5.40;4.85;;;20.70;99.90;;;;;;5046868;28;20206;-73
2021/09/16 11:38:31;;;;;;;6.35;5.43;;;20.70;99.90;;;;;;5048895;28;20192;-73
2021/09/16 11:41:03;;;;;;;6.70;6.00;;;20.70;99.90;;;;;;5048806;28;20937;-73
2021/09/16 11:43:30;;;;;;;8.60;7.35;;;20.60;99.90;;;;;;5047767;28;20198;-73
2021/09/16 11:45:57;;;;;;;7.30;6.03;;;20.60;99.90;;;;;;5049334;28;20764;-73
2021/09/16 11:48:25;;;;;;;7.72;6.82;;;20.70;99.90;;;;;;5048223;28;20209;-73
2021/09/16 11:50:59;;;;;;;7.57;6.78;;;20.70;99.90;;;;;;5048918;28;20280;-73
2021/09/16 11:53:28;;;;;;;6.38;5.78;;;20.80;99.90;;;;;;5049308;28;20201;-73
2021/09/16 11:55:58;;;;;;;7.18;6.22;;;20.90;99.90;;;;;;5045434;28;20194;-73
2021/09/16 11:58:26;;;;;;;7.07;6.37;;;21.00;99.90;;;;;;5046900;28;20440;-72
2021/09/16 12:00:55;;;;;;;6.80;6.20;;;21.10;99.90;;;;;;5048403;28;20206;-72
2021/09/16 12:03:24;;;;;;;6.57;5.88;;;21.20;99.90;;;;;;5046225;28;20193;-72
2021/09/16 12:05:53;;;;;;;7.93;6.75;;;21.50;99.90;;;;;;5049191;28;20202;-72
2021/09/16 12:08:23;;;;;;;6.00;5.40;;;21.60;99.90;;;;;;5046642;28;20304;-74
2021/09/16 12:10:54;;;;;;;5.78;5.22;;;21.70;99.90;;;;;;5047820;28;20202;-74
2021/09/16 12:13:24;;;;;;;6.88;5.90;;;21.70;99.90;;;;;;5043322;28;20597;-74
2021/09/16 12:16:04;;;;;;;6.70;6.10;;;21.70;99.90;;;;;;5048154;28;20210;-72
2021/09/16 12:18:31;;;;;;;5.07;4.68;;;21.70;99.90;;;;;;5047590;28;20200;-73
2021/09/16 12:20:59;;;;;;;6.40;5.80;;;21.50;99.90;;;;;;5045763;28;20439;-70
2021/09/16 12:23:26;;;;;;;5.50;5.10;;;21.70;99.90;;;;;;5047371;28;20201;-69
2021/09/16 12:25:59;;;;;;;5.60;5.10;;;21.70;99.90;;;;;;5046504;28;20190;-70
2021/09/16 12:28:28;;;;;;;6.15;5.57;;;21.70;99.90;;;;;;5046135;28;20208;-70
2021/09/16 12:30:56;;;;;;;5.32;4.93;;;21.70;99.90;;;;;;5043250;28;20194;-71
2021/09/16 12:33:33;;;;;;;6.38;5.75;;;21.70;99.90;;;;;;5047638;28;20194;-70
2021/09/16 12:36:23;;;;;;;5.65;5.15;;;21.80;99.90;;;;;;5048142;28;20216;-70
2021/09/16 12:38:54;;;;;;;5.60;4.97;;;21.80;99.90;;;;;;5049387;28;20660;-70
2021/09/16 12:41:27;;;;;;;6.05;5.50;;;21.80;99.90;;;;;;5036638;28;20232;-70
2021/09/16 12:43:59;;;;;;;5.50;5.00;;;21.80;99.90;;;;;;5047064;28;20209;-69
2021/09/16 12:46:27;;;;;;;7.72;5.93;;;21.80;99.90;;;;;;5045680;28;20255;-70
2021/09/16 12:48:54;;;;;;;4.75;4.45;;;21.80;99.90;;;;;;5044731;28;20201;-70
2021/09/16 12:51:23;;;;;;;6.00;5.40;;;21.90;99.90;;;;;;5048166;28;20186;-69
2021/09/16 12:53:53;;;;;;;5.15;4.65;;;21.90;99.90;;;;;;5047646;28;20190;-69
2021/09/16 12:56:20;;;;;;;5.40;4.97;;;21.90;99.90;;;;;;5046475;28;20229;-69